createdAt,value
2018-12-13T00:00:54.124Z,7.37
2018-12-13T00:03:22.812Z,8.90
2018-12-13T00:05:51.527Z,7.77
2018-12-13T00:08:20.215Z,10.00
2018-12-13T00:10:48.688Z,10.27
2018-12-13T00:13:17.098Z,9.10
2018-12-13T00:15:45.626Z,8.07
2018-12-13T00:18:14.309Z,7.83
2018-12-13T00:20:42.885Z,9.53
2018-12-13T00:23:11.275Z,9.63
2018-12-13T00:25:40.061Z,8.77
2018-12-13T00:28:08.482Z,10.00
2018-12-13T00:30:36.886Z,9.07
2018-12-13T00:33:05.486Z,9.10
2018-12-13T00:35:34.224Z,9.70
2018-12-13T00:38:02.927Z,9.93
2018-12-13T00:40:31.498Z,11.07
2018-12-13T00:42:59.894Z,9.77
2018-12-13T00:45:28.378Z,9.50
2018-12-13T00:47:56.961Z,9.20
2018-12-13T00:50:25.544Z,9.90
2018-12-13T00:52:53.964Z,9.40
2018-12-13T00:55:22.434Z,11.03
2018-12-13T00:57:51.842Z,9.73
2018-12-13T01:00:20.251Z,10.10
2018-12-13T01:02:48.625Z,10.87
2018-12-13T01:05:17.349Z,13.17
2018-12-13T01:07:46.467Z,12.57
2018-12-13T01:10:15.818Z,10.67
2018-12-13T01:12:44.203Z,11.63
2018-12-13T01:15:12.935Z,15.90
2018-12-13T01:17:41.478Z,16.07
2018-12-13T01:20:10.143Z,16.93
2018-12-13T01:22:38.499Z,11.07
2018-12-13T01:25:07.073Z,13.63
2018-12-13T01:27:35.992Z,12.90
2018-12-13T01:30:04.834Z,14.40
2018-12-13T01:32:33.393Z,15.93
2018-12-13T01:35:02.007Z,16.17
2018-12-13T01:37:30.619Z,17.10
2018-12-13T01:39:59.794Z,15.00
2018-12-13T01:42:28.207Z,15.50
2018-12-13T01:44:56.784Z,18.10
2018-12-13T01:47:25.326Z,18.27
2018-12-13T01:49:53.719Z,17.07
2018-12-13T01:52:22.130Z,19.97
2018-12-13T01:54:50.511Z,17.77
2018-12-13T01:57:18.989Z,18.03
2018-12-13T01:59:47.479Z,18.57
2018-12-13T02:02:15.872Z,20.60
2018-12-13T02:04:44.485Z,20.23
2018-12-13T02:07:13.313Z,20.80
2018-12-13T02:09:41.682Z,18.63
2018-12-13T02:12:10.136Z,20.90
2018-12-13T02:14:39.381Z,20.70
2018-12-13T02:17:07.797Z,20.70
2018-12-13T02:19:36.261Z,21.03
2018-12-13T02:22:05.736Z,18.97
2018-12-13T02:24:34.627Z,21.77
2018-12-13T02:27:03.044Z,21.40
2018-12-13T02:29:31.463Z,21.83
2018-12-13T02:31:59.901Z,20.80
2018-12-13T02:34:28.322Z,22.83
2018-12-13T02:36:56.729Z,21.37
2018-12-13T02:39:25.147Z,21.50
2018-12-13T02:41:53.613Z,22.10
2018-12-13T02:44:22.027Z,21.30
2018-12-13T02:46:50.436Z,21.63
2018-12-13T02:49:18.881Z,22.50
2018-12-13T02:51:47.543Z,19.83
2018-12-13T02:54:16.112Z,21.37
2018-12-13T02:56:44.666Z,24.20
2018-12-13T02:59:13.126Z,22.53
2018-12-13T03:01:41.594Z,20.90
2018-12-13T03:04:10.233Z,21.30
2018-12-13T03:06:39.049Z,21.07
2018-12-13T03:09:07.895Z,20.53
2018-12-13T03:11:36.538Z,20.37
2018-12-13T03:14:04.976Z,23.50
2018-12-13T03:16:33.576Z,22.33
2018-12-13T03:19:02.326Z,21.60
2018-12-13T03:21:31.094Z,20.17
2018-12-13T03:23:59.767Z,18.90
2018-12-13T03:26:28.490Z,19.87
2018-12-13T03:28:57.009Z,21.03
2018-12-13T03:31:25.265Z,20.30
2018-12-13T03:33:53.900Z,19.10
2018-12-13T03:36:22.548Z,19.13
2018-12-13T03:38:51.020Z,19.20
2018-12-13T03:41:19.491Z,17.70
2018-12-13T03:43:48.159Z,18.23
2018-12-13T03:46:16.645Z,19.17
2018-12-13T03:48:45.020Z,17.57
2018-12-13T03:51:13.556Z,18.63
2018-12-13T03:53:42.062Z,17.30
2018-12-13T03:56:10.565Z,17.50
2018-12-13T03:58:38.982Z,18.23
2018-12-13T04:01:07.520Z,17.10
2018-12-13T04:03:36.022Z,16.00
2018-12-13T04:06:04.493Z,16.70
2018-12-13T04:08:32.970Z,17.00
2018-12-13T04:11:01.402Z,17.90
2018-12-13T04:13:29.912Z,18.60
2018-12-13T04:15:58.325Z,13.40
2018-12-13T04:18:26.751Z,17.80
2018-12-13T04:20:55.337Z,15.37
2018-12-13T04:23:25.007Z,16.60
2018-12-13T04:25:53.560Z,17.00
2018-12-13T04:28:22.286Z,15.80
2018-12-13T04:30:51.056Z,17.60
2018-12-13T04:33:19.647Z,16.50
2018-12-13T04:35:48.255Z,16.43
2018-12-13T04:38:17.181Z,19.37
2018-12-13T04:40:45.659Z,14.93
2018-12-13T04:43:14.357Z,16.87
2018-12-13T04:45:42.917Z,15.47
2018-12-13T04:48:11.546Z,16.90
2018-12-13T04:50:40.389Z,17.30
2018-12-13T04:53:08.924Z,16.40
2018-12-13T04:55:37.314Z,15.63
2018-12-13T04:58:05.772Z,16.40
2018-12-13T05:00:34.208Z,17.03
2018-12-13T05:03:02.622Z,16.57
2018-12-13T05:05:31.250Z,16.07
2018-12-13T05:07:59.879Z,16.80
2018-12-13T05:10:40.110Z,14.93
2018-12-13T05:13:08.559Z,14.80
2018-12-13T05:15:36.987Z,18.03
2018-12-13T05:18:05.545Z,17.57
2018-12-13T05:20:34.082Z,15.50
2018-12-13T05:23:02.513Z,14.93
2018-12-13T05:25:31.769Z,16.00
2018-12-13T05:28:00.517Z,17.50
2018-12-13T05:30:29.260Z,17.23
2018-12-13T05:32:57.742Z,16.00
2018-12-13T05:35:26.134Z,16.27
2018-12-13T05:37:54.810Z,16.17
2018-12-13T05:40:23.612Z,16.37
2018-12-13T05:42:52.470Z,16.10
2018-12-13T05:45:20.922Z,17.70
2018-12-13T05:47:49.326Z,16.87
2018-12-13T05:50:17.697Z,15.80
2018-12-13T05:52:46.110Z,16.07
2018-12-13T05:55:14.543Z,16.60
2018-12-13T05:57:43.431Z,17.60
2018-12-13T06:00:12.150Z,15.07
2018-12-13T06:02:40.692Z,15.80
2018-12-13T06:05:14.955Z,15.17
2018-12-13T06:07:55.036Z,17.50
2018-12-13T06:10:24.353Z,17.67
2018-12-13T06:13:03.922Z,15.90
2018-12-13T06:15:36.033Z,16.77
2018-12-13T06:18:06.990Z,17.37
2018-12-13T06:20:40.072Z,19.03
2018-12-13T06:23:12.583Z,16.07
2018-12-13T06:25:43.063Z,19.33
2018-12-13T06:28:12.097Z,18.67
2018-12-13T06:30:41.171Z,16.37
2018-12-13T06:33:10.642Z,18.40
2018-12-13T06:35:49.202Z,15.57
2018-12-13T06:38:18.400Z,17.80
2018-12-13T06:40:47.673Z,17.60
2018-12-13T06:43:25.477Z,19.77
2018-12-13T06:48:37.750Z,19.27
2018-12-13T06:51:06.783Z,19.27
2018-12-13T06:53:35.218Z,16.97
2018-12-13T06:56:04.004Z,18.07
2018-12-13T06:58:32.721Z,19.07
2018-12-13T07:01:01.528Z,19.10
2018-12-13T07:03:30.300Z,19.23
2018-12-13T07:05:58.982Z,18.60
2018-12-13T07:08:27.476Z,20.10
2018-12-13T07:10:55.906Z,18.77
2018-12-13T07:13:24.364Z,18.63
2018-12-13T07:15:52.835Z,17.93
2018-12-13T07:18:21.220Z,19.33
2018-12-13T07:20:50.016Z,19.97
2018-12-13T07:23:18.410Z,10.43
2018-12-13T07:25:46.830Z,18.30
2018-12-13T07:28:15.304Z,13.90
2018-12-13T07:30:44.146Z,14.20
2018-12-13T07:33:12.823Z,14.50
2018-12-13T07:35:41.569Z,16.90
2018-12-13T07:38:14.210Z,16.73
2018-12-13T07:40:41.107Z,14.67
2018-12-13T07:43:14.779Z,17.23
2018-12-13T07:45:52.085Z,15.60
2018-12-13T07:48:23.522Z,14.90
2018-12-13T07:50:54.846Z,16.97
2018-12-13T07:53:26.294Z,17.63
2018-12-13T07:55:55.597Z,18.30
2018-12-13T07:58:25.138Z,17.37
2018-12-13T08:00:54.480Z,17.50
2018-12-13T08:03:25.766Z,16.10
2018-12-13T08:06:03.558Z,17.77
2018-12-13T08:08:32.889Z,17.30
2018-12-13T08:11:02.969Z,16.73
2018-12-13T08:13:32.362Z,16.60
2018-12-13T08:16:09.779Z,14.53
2018-12-13T08:18:42.279Z,14.20
2018-12-13T08:21:12.232Z,15.37
2018-12-13T08:23:42.697Z,16.87
2018-12-13T08:26:12.286Z,15.03
2018-12-13T08:28:41.341Z,15.43
2018-12-13T08:31:11.536Z,16.67
2018-12-13T08:33:48.624Z,14.47
2018-12-13T08:36:19.107Z,18.30
2018-12-13T08:38:56.758Z,15.80
2018-12-13T08:41:25.141Z,16.30
2018-12-13T08:43:53.520Z,14.60
2018-12-13T08:46:21.879Z,16.30
2018-12-13T08:48:50.389Z,14.77
2018-12-13T08:51:18.865Z,16.00
2018-12-13T08:53:47.310Z,16.00
2018-12-13T08:56:15.848Z,16.63
2018-12-13T08:58:44.558Z,15.83
2018-12-13T09:01:13.126Z,12.57
2018-12-13T09:03:44.115Z,16.50
2018-12-13T09:06:13.244Z,13.80
2018-12-13T09:08:41.727Z,14.07
2018-12-13T09:11:10.207Z,14.20
2018-12-13T09:13:38.859Z,15.30
2018-12-13T09:16:07.323Z,13.53
2018-12-13T09:18:35.762Z,15.63
2018-12-13T09:21:04.219Z,12.70
2018-12-13T09:23:34.470Z,12.20
2018-12-13T09:26:02.851Z,13.57
2018-12-13T09:28:31.717Z,14.97
2018-12-13T09:31:00.481Z,13.33
2018-12-13T09:33:28.993Z,14.13
2018-12-13T09:35:57.434Z,12.50
2018-12-13T09:38:27.305Z,13.90
2018-12-13T09:40:55.970Z,16.43
2018-12-13T09:43:27.242Z,14.80
2018-12-13T09:45:55.649Z,12.63
2018-12-13T09:48:24.180Z,17.00
2018-12-13T09:50:52.780Z,12.30
2018-12-13T09:53:21.369Z,13.77
2018-12-13T09:55:51.101Z,14.97
2018-12-13T09:58:19.532Z,12.63
2018-12-13T10:00:47.895Z,13.20
2018-12-13T10:03:16.277Z,14.60
2018-12-13T10:05:44.640Z,14.83
2018-12-13T10:08:13.473Z,15.17
2018-12-13T10:10:41.905Z,14.67
2018-12-13T10:13:10.843Z,12.10
2018-12-13T10:15:39.692Z,15.73
2018-12-13T10:18:08.094Z,13.33
2018-12-13T10:20:36.445Z,13.77
2018-12-13T10:23:04.827Z,12.70
2018-12-13T10:25:34.330Z,17.60
2018-12-13T10:28:02.788Z,14.20
2018-12-13T10:30:31.143Z,14.53
2018-12-13T10:32:59.525Z,14.77
2018-12-13T10:35:27.904Z,12.43
2018-12-13T10:37:56.503Z,15.27
2018-12-13T10:40:25.057Z,16.80
2018-12-13T10:42:53.430Z,12.03
2018-12-13T10:45:21.839Z,17.60
2018-12-13T10:47:50.291Z,14.90
2018-12-13T10:50:18.655Z,14.67
2018-12-13T10:52:47.135Z,13.60
2018-12-13T10:55:15.621Z,12.87
2018-12-13T10:57:43.982Z,13.47
2018-12-13T11:00:18.249Z,10.37
2018-12-13T11:03:00.633Z,11.57
2018-12-13T11:05:29.198Z,12.83
2018-12-13T11:07:57.695Z,13.60
2018-12-13T11:10:26.137Z,11.83
2018-12-13T11:12:54.566Z,11.27
2018-12-13T11:15:23.022Z,14.23
2018-12-13T11:17:51.605Z,11.67
2018-12-13T11:20:21.905Z,12.80
2018-12-13T11:22:51.398Z,10.63
2018-12-13T11:25:19.742Z,12.80
2018-12-13T11:27:54.853Z,9.70
2018-12-13T11:30:24.346Z,12.23
2018-12-13T11:32:52.694Z,11.90
2018-12-13T11:35:21.050Z,10.93
2018-12-13T11:37:49.383Z,11.17
2018-12-13T11:40:17.780Z,11.80
2018-12-13T11:42:46.170Z,9.90
2018-12-13T11:45:14.572Z,11.37
2018-12-13T11:47:42.957Z,10.50
2018-12-13T11:50:12.915Z,10.10
2018-12-13T11:52:42.097Z,12.00
2018-12-13T11:55:19.198Z,9.57
2018-12-13T11:57:49.022Z,9.30
2018-12-13T12:00:18.317Z,11.50
2018-12-13T12:02:46.664Z,10.70
2018-12-13T12:05:15.035Z,9.40
2018-12-13T12:07:43.544Z,10.23
2018-12-13T12:10:12.553Z,10.50
2018-12-13T12:12:40.939Z,9.70
2018-12-13T12:15:09.618Z,10.17
2018-12-13T12:17:38.049Z,11.60
2018-12-13T12:20:06.922Z,9.63
2018-12-13T12:22:35.325Z,9.73
2018-12-13T12:25:04.935Z,11.20
2018-12-13T12:27:33.331Z,9.27
2018-12-13T12:30:01.827Z,11.57
2018-12-13T12:32:30.299Z,12.40
2018-12-13T12:34:59.236Z,10.70
2018-12-13T12:37:27.589Z,10.73
2018-12-13T12:39:55.970Z,11.20
2018-12-13T12:42:24.359Z,11.13
2018-12-13T12:44:52.775Z,13.93
2018-12-13T12:47:21.221Z,11.53
2018-12-13T12:49:49.602Z,13.60
2018-12-13T12:52:17.957Z,13.97
2018-12-13T12:54:46.352Z,15.50
2018-12-13T12:57:14.800Z,13.13
2018-12-13T12:59:43.281Z,13.23
2018-12-13T13:02:11.637Z,13.90
2018-12-13T13:04:40.038Z,13.07
2018-12-13T13:07:08.393Z,12.90
2018-12-13T13:09:36.782Z,14.80
2018-12-13T13:12:05.314Z,17.20
2018-12-13T13:14:33.741Z,12.70
2018-12-13T13:17:02.167Z,16.43
2018-12-13T13:19:30.631Z,14.60
2018-12-13T13:21:59.062Z,13.23
2018-12-13T13:24:27.625Z,15.00
2018-12-13T13:26:56.405Z,16.80
2018-12-13T13:29:24.870Z,14.60
2018-12-13T13:31:53.337Z,14.63
2018-12-13T13:34:21.772Z,13.97
2018-12-13T13:36:50.968Z,12.60
2018-12-13T13:39:19.721Z,14.47
2018-12-13T13:41:48.210Z,13.87
2018-12-13T13:44:18.223Z,14.40
2018-12-13T13:46:46.805Z,14.03
2018-12-13T13:49:15.288Z,12.77
2018-12-13T13:51:43.768Z,12.57
2018-12-13T13:54:12.308Z,11.97
2018-12-13T13:56:40.684Z,13.00
2018-12-13T13:59:09.154Z,12.77
2018-12-13T14:01:37.501Z,13.73
2018-12-13T14:04:05.934Z,12.70
2018-12-13T14:06:34.349Z,12.00
2018-12-13T14:09:04.377Z,14.03
2018-12-13T14:11:32.750Z,13.10
2018-12-13T14:14:01.193Z,12.40
2018-12-13T14:16:29.670Z,12.33
2018-12-13T14:18:58.002Z,11.33
2018-12-13T14:21:26.369Z,12.20
2018-12-13T14:23:54.827Z,13.33
2018-12-13T14:26:23.285Z,15.67
2018-12-13T14:28:51.889Z,13.07
2018-12-13T14:31:20.257Z,12.63
2018-12-13T14:33:48.623Z,12.73
2018-12-13T14:36:16.974Z,11.97
2018-12-13T14:38:45.349Z,12.50
2018-12-13T14:41:13.717Z,11.20
2018-12-13T14:43:42.185Z,13.67
2018-12-13T14:46:10.846Z,11.70
2018-12-13T14:48:39.305Z,12.70
2018-12-13T14:51:07.674Z,13.57
2018-12-13T14:53:37.546Z,13.73
2018-12-13T14:56:05.917Z,14.23
2018-12-13T14:58:34.290Z,15.10
2018-12-13T15:01:02.650Z,14.87
2018-12-13T15:03:31.114Z,14.63
2018-12-13T15:05:59.449Z,15.13
2018-12-13T15:08:28.151Z,14.53
2018-12-13T15:10:56.776Z,13.83
2018-12-13T15:13:25.243Z,15.73
2018-12-13T15:15:53.591Z,14.50
2018-12-13T15:18:22.227Z,15.03
2018-12-13T15:20:50.622Z,13.63
2018-12-13T15:23:19.061Z,14.77
2018-12-13T15:25:47.468Z,17.10
2018-12-13T15:28:15.809Z,15.20
2018-12-13T15:30:44.215Z,13.83
2018-12-13T15:33:12.612Z,13.73
2018-12-13T15:35:41.706Z,15.10
2018-12-13T15:38:10.026Z,13.90
2018-12-13T15:40:38.446Z,16.03
2018-12-13T15:43:07.130Z,14.60
2018-12-13T15:45:35.903Z,12.93
2018-12-13T15:48:07.699Z,15.27
2018-12-13T15:50:36.152Z,14.40
2018-12-13T15:53:04.570Z,15.00
2018-12-13T15:55:32.906Z,13.97
2018-12-13T15:58:01.385Z,16.00
2018-12-13T16:00:29.757Z,14.00
2018-12-13T16:02:58.469Z,14.23
2018-12-13T16:05:26.900Z,14.10
2018-12-13T16:07:55.260Z,13.83
2018-12-13T16:10:23.635Z,14.23
2018-12-13T16:12:52.002Z,13.30
2018-12-13T16:15:20.363Z,14.17
2018-12-13T16:17:48.751Z,13.80
2018-12-13T16:20:17.121Z,14.30
2018-12-13T16:22:45.570Z,14.20
2018-12-13T16:25:14.075Z,12.73
2018-12-13T16:27:42.538Z,15.23
2018-12-13T16:30:11.215Z,12.87
2018-12-13T16:32:39.817Z,15.50
2018-12-13T16:35:08.201Z,16.50
2018-12-13T16:37:36.889Z,14.57
2018-12-13T16:40:10.219Z,13.60
2018-12-13T16:42:36.135Z,14.83
2018-12-13T16:45:04.842Z,13.83
2018-12-13T16:47:33.274Z,13.53
2018-12-13T16:50:05.741Z,16.10
2018-12-13T16:52:34.799Z,15.37
2018-12-13T16:55:03.382Z,13.53
2018-12-13T16:57:31.899Z,14.10
2018-12-13T17:00:00.321Z,13.63
2018-12-13T17:02:28.729Z,13.43
2018-12-13T17:05:03.163Z,14.50
2018-12-13T17:07:29.901Z,13.53
2018-12-13T17:09:58.437Z,12.03
2018-12-13T17:12:27.167Z,13.17
2018-12-13T17:14:56.661Z,14.77
2018-12-13T17:17:25.018Z,12.50
2018-12-13T17:19:53.436Z,12.87
2018-12-13T17:22:21.805Z,14.33
2018-12-13T17:24:50.157Z,16.63
2018-12-13T17:27:18.800Z,13.77
2018-12-13T17:29:47.183Z,11.17
2018-12-13T17:32:15.558Z,15.43
2018-12-13T17:34:43.933Z,13.10
2018-12-13T17:37:12.305Z,16.33
2018-12-13T17:39:40.677Z,13.80
2018-12-13T17:42:09.366Z,12.10
2018-12-13T17:44:37.733Z,12.57
2018-12-13T17:47:06.127Z,12.87
2018-12-13T17:49:34.586Z,13.97
2018-12-13T17:52:02.969Z,11.57
2018-12-13T17:54:31.326Z,13.30
2018-12-13T17:56:59.680Z,14.07
2018-12-13T17:59:28.061Z,13.90
2018-12-13T18:01:56.453Z,17.70
2018-12-13T18:04:24.959Z,14.20
2018-12-13T18:06:53.291Z,15.40
2018-12-13T18:09:21.658Z,13.90
2018-12-13T18:11:50.041Z,13.43
2018-12-13T18:14:18.500Z,13.33
2018-12-13T18:16:46.927Z,14.90
2018-12-13T18:19:15.268Z,14.30
2018-12-13T18:21:43.715Z,17.13
2018-12-13T18:24:12.090Z,13.47
2018-12-13T18:26:40.554Z,18.83
2018-12-13T18:29:09.059Z,15.17
2018-12-13T18:31:37.633Z,14.93
2018-12-13T18:34:06.056Z,15.40
2018-12-13T18:36:34.542Z,14.80
2018-12-13T18:39:04.904Z,16.00
2018-12-13T18:41:33.325Z,16.50
2018-12-13T18:44:01.711Z,13.97
2018-12-13T18:46:30.160Z,16.50
2018-12-13T18:48:58.625Z,15.73
2018-12-13T18:51:27.260Z,14.27
2018-12-13T18:53:55.713Z,14.17
2018-12-13T18:56:24.426Z,14.00
2018-12-13T18:58:52.803Z,13.72
2018-12-13T19:01:21.503Z,14.93
2018-12-13T19:03:49.972Z,13.17
2018-12-13T19:06:18.370Z,13.10
2018-12-13T19:08:46.740Z,13.37
2018-12-13T19:11:15.209Z,13.43
2018-12-13T19:13:43.623Z,13.00
2018-12-13T19:16:11.959Z,13.33
2018-12-13T19:18:40.330Z,13.00
2018-12-13T19:21:08.748Z,12.87
2018-12-13T19:23:37.193Z,16.03
2018-12-13T19:26:05.606Z,13.90
2018-12-13T19:28:34.025Z,13.43
2018-12-13T19:31:02.451Z,15.37
2018-12-13T19:33:31.109Z,11.90
2018-12-13T19:35:59.495Z,11.83
2018-12-13T19:38:29.757Z,12.63
2018-12-13T19:40:58.110Z,14.83
2018-12-13T19:43:26.508Z,12.13
2018-12-13T19:45:54.918Z,14.40
2018-12-13T19:48:23.450Z,13.07
2018-12-13T19:50:52.326Z,13.60
2018-12-13T19:53:21.067Z,14.63
2018-12-13T19:55:49.569Z,11.30
2018-12-13T19:58:17.992Z,12.87
2018-12-13T20:00:46.488Z,12.03
2018-12-13T20:03:15.245Z,13.80
2018-12-13T20:05:43.586Z,13.77
2018-12-13T20:08:12.017Z,13.90
2018-12-13T20:10:40.487Z,13.20
2018-12-13T20:13:08.924Z,12.40
2018-12-13T20:15:37.439Z,12.87
2018-12-13T20:18:05.769Z,12.83
2018-12-13T20:20:34.193Z,12.90
2018-12-13T20:23:02.891Z,12.13
2018-12-13T20:25:31.399Z,13.70
2018-12-13T20:27:59.882Z,12.80
2018-12-13T20:30:28.320Z,13.63
2018-12-13T20:32:56.856Z,12.27
2018-12-13T20:35:25.776Z,15.43
2018-12-13T20:37:54.170Z,13.00
2018-12-13T20:40:22.618Z,12.00
2018-12-13T20:42:51.008Z,11.00
2018-12-13T20:45:19.415Z,12.43
2018-12-13T20:47:47.849Z,12.50
2018-12-13T20:50:16.253Z,12.80
2018-12-13T20:52:45.522Z,12.60
2018-12-13T20:55:13.941Z,14.10
2018-12-13T20:57:42.373Z,10.43
2018-12-13T21:00:10.982Z,12.87
2018-12-13T21:02:39.414Z,10.83
2018-12-13T21:05:07.787Z,11.53
2018-12-13T21:07:36.148Z,12.57
2018-12-13T21:10:05.941Z,13.10
2018-12-13T21:12:35.459Z,11.60
2018-12-13T21:15:04.668Z,11.37
2018-12-13T21:17:33.073Z,12.63
2018-12-13T21:20:01.424Z,12.87
2018-12-13T21:22:30.236Z,10.90
2018-12-13T21:24:59.171Z,10.03
2018-12-13T21:27:28.447Z,12.47
2018-12-13T21:29:57.649Z,11.40
2018-12-13T21:32:26.589Z,13.00
2018-12-13T21:34:54.992Z,11.80
2018-12-13T21:37:23.445Z,12.27
2018-12-13T21:39:52.372Z,13.00
2018-12-13T21:42:21.699Z,12.30
2018-12-13T21:44:50.316Z,11.40
2018-12-13T21:47:18.699Z,12.10
2018-12-13T21:49:47.221Z,11.67
2018-12-13T21:52:15.800Z,12.20
2018-12-13T21:54:44.191Z,11.93
2018-12-13T21:57:12.569Z,17.70
2018-12-13T21:59:41.044Z,12.00
2018-12-13T22:02:09.505Z,11.27
2018-12-13T22:04:38.003Z,12.37
2018-12-13T22:07:06.669Z,14.57
2018-12-13T22:09:35.082Z,13.07
2018-12-13T22:12:03.595Z,14.17
2018-12-13T22:14:32.034Z,12.30
2018-12-13T22:17:00.674Z,11.87
2018-12-13T22:19:29.185Z,11.37
2018-12-13T22:21:57.821Z,13.63
2018-12-13T22:24:26.418Z,12.50
2018-12-13T22:26:55.120Z,14.30
2018-12-13T22:29:23.691Z,14.23
2018-12-13T22:31:52.469Z,12.70
2018-12-13T22:34:21.148Z,13.53
2018-12-13T22:36:50.237Z,12.90
2018-12-13T22:39:18.801Z,12.70
2018-12-13T22:41:47.262Z,13.87
2018-12-13T22:44:15.938Z,11.93
2018-12-13T22:46:44.702Z,13.43
2018-12-13T22:49:13.174Z,14.40
2018-12-13T22:51:41.725Z,11.80
2018-12-13T22:54:10.127Z,12.33
2018-12-13T22:56:38.706Z,12.73
2018-12-13T22:59:07.194Z,14.50
2018-12-13T23:01:36.525Z,12.83
2018-12-13T23:04:05.605Z,14.00
2018-12-13T23:06:34.063Z,14.67
2018-12-13T23:09:02.437Z,14.73
2018-12-13T23:11:32.799Z,16.60
2018-12-13T23:14:01.303Z,13.47
2018-12-13T23:16:29.671Z,14.90
2018-12-13T23:18:58.450Z,14.33
2018-12-13T23:21:26.825Z,15.33
2018-12-13T23:23:55.243Z,14.80
2018-12-13T23:26:23.666Z,16.97
2018-12-13T23:28:52.120Z,16.03
2018-12-13T23:31:20.563Z,15.93
2018-12-13T23:33:49.011Z,14.07
2018-12-13T23:36:17.468Z,18.00
2018-12-13T23:38:45.862Z,15.17
2018-12-13T23:41:14.350Z,14.67
2018-12-13T23:43:42.808Z,14.03
2018-12-13T23:46:11.293Z,15.63
2018-12-13T23:48:39.688Z,15.00
2018-12-13T23:51:08.131Z,15.17
2018-12-13T23:53:36.513Z,13.90
2018-12-13T23:56:05.032Z,14.57
2018-12-13T23:58:33.924Z,14.80
